sensor_id;sensor_type;location;lat;lon;timestamp;temperature;humidity
69546;SHT31;56766;52.260;20.746;2023-08-20T00:00:57;20.85;84.12
69546;SHT31;56766;52.260;20.746;2023-08-20T00:03:44;20.84;84.06
69546;SHT31;56766;52.260;20.746;2023-08-20T00:06:12;20.81;83.99
69546;SHT31;56766;52.260;20.746;2023-08-20T00:08:40;20.71;84.23
69546;SHT31;56766;52.260;20.746;2023-08-20T00:11:06;20.55;84.57
69546;SHT31;56766;52.260;20.746;2023-08-20T00:13:33;20.45;84.91
69546;SHT31;56766;52.260;20.746;2023-08-20T00:16:00;20.46;84.71
69546;SHT31;56766;52.260;20.746;2023-08-20T00:18:27;20.49;84.69
69546;SHT31;56766;52.260;20.746;2023-08-20T00:20:55;20.51;84.78
69546;SHT31;56766;52.260;20.746;2023-08-20T00:23:22;20.51;84.78
69546;SHT31;56766;52.260;20.746;2023-08-20T00:25:49;20.47;84.69
69546;SHT31;56766;52.260;20.746;2023-08-20T00:28:16;20.47;84.54
69546;SHT31;56766;52.260;20.746;2023-08-20T00:30:46;20.48;84.36
69546;SHT31;56766;52.260;20.746;2023-08-20T00:33:13;20.49;84.30
69546;SHT31;56766;52.260;20.746;2023-08-20T00:35:40;20.48;84.29
69546;SHT31;56766;52.260;20.746;2023-08-20T00:38:07;20.45;84.32
69546;SHT31;56766;52.260;20.746;2023-08-20T00:40:34;20.39;84.44
69546;SHT31;56766;52.260;20.746;2023-08-20T00:43:00;20.37;84.50
69546;SHT31;56766;52.260;20.746;2023-08-20T00:45:27;20.34;84.50
69546;SHT31;56766;52.260;20.746;2023-08-20T00:47:54;20.32;84.56
69546;SHT31;56766;52.260;20.746;2023-08-20T00:50:21;20.33;84.59
69546;SHT31;56766;52.260;20.746;2023-08-20T00:52:49;20.32;84.60
69546;SHT31;56766;52.260;20.746;2023-08-20T00:55:16;20.29;84.35
69546;SHT31;56766;52.260;20.746;2023-08-20T00:57:43;20.25;84.23
69546;SHT31;56766;52.260;20.746;2023-08-20T01:00:13;20.23;84.38
69546;SHT31;56766;52.260;20.746;2023-08-20T01:02:42;20.27;84.34
69546;SHT31;56766;52.260;20.746;2023-08-20T01:05:11;20.26;84.49
69546;SHT31;56766;52.260;20.746;2023-08-20T01:10:31;20.26;84.44
69546;SHT31;56766;52.260;20.746;2023-08-20T01:13:06;20.24;84.38
69546;SHT31;56766;52.260;20.746;2023-08-20T01:15:33;20.23;84.56
69546;SHT31;56766;52.260;20.746;2023-08-20T01:18:01;20.24;84.42
69546;SHT31;56766;52.260;20.746;2023-08-20T01:20:31;20.19;84.28
69546;SHT31;56766;52.260;20.746;2023-08-20T01:29:18;20.13;84.27
69546;SHT31;56766;52.260;20.746;2023-08-20T01:31:46;20.19;84.19
69546;SHT31;56766;52.260;20.746;2023-08-20T01:34:14;20.19;84.29
69546;SHT31;56766;52.260;20.746;2023-08-20T01:36:41;20.20;84.25
69546;SHT31;56766;52.260;20.746;2023-08-20T01:39:07;20.22;84.14
69546;SHT31;56766;52.260;20.746;2023-08-20T01:41:35;20.22;83.87
69546;SHT31;56766;52.260;20.746;2023-08-20T01:44:01;20.19;83.81
69546;SHT31;56766;52.260;20.746;2023-08-20T01:46:28;20.20;83.90
69546;SHT31;56766;52.260;20.746;2023-08-20T01:48:55;20.24;83.92
69546;SHT31;56766;52.260;20.746;2023-08-20T01:51:22;20.28;83.74
69546;SHT31;56766;52.260;20.746;2023-08-20T01:53:48;20.32;83.63
69546;SHT31;56766;52.260;20.746;2023-08-20T01:56:15;20.37;83.36
69546;SHT31;56766;52.260;20.746;2023-08-20T01:58:42;20.41;83.33
69546;SHT31;56766;52.260;20.746;2023-08-20T02:01:09;20.35;83.32
69546;SHT31;56766;52.260;20.746;2023-08-20T02:03:36;20.27;83.31
69546;SHT31;56766;52.260;20.746;2023-08-20T02:06:06;20.16;83.55
69546;SHT31;56766;52.260;20.746;2023-08-20T02:08:32;20.10;83.75
69546;SHT31;56766;52.260;20.746;2023-08-20T02:11:01;20.06;83.85
69546;SHT31;56766;52.260;20.746;2023-08-20T02:13:29;20.03;83.88
69546;SHT31;56766;52.260;20.746;2023-08-20T02:16:04;20.02;83.93
69546;SHT31;56766;52.260;20.746;2023-08-20T02:18:31;20.00;84.22
69546;SHT31;56766;52.260;20.746;2023-08-20T02:20:58;19.96;84.55
69546;SHT31;56766;52.260;20.746;2023-08-20T02:23:25;19.91;84.70
69546;SHT31;56766;52.260;20.746;2023-08-20T02:25:51;19.88;84.75
69546;SHT31;56766;52.260;20.746;2023-08-20T02:28:18;19.84;84.81
69546;SHT31;56766;52.260;20.746;2023-08-20T02:30:46;19.83;84.86
69546;SHT31;56766;52.260;20.746;2023-08-20T02:33:13;19.85;84.75
69546;SHT31;56766;52.260;20.746;2023-08-20T02:35:40;19.89;84.56
69546;SHT31;56766;52.260;20.746;2023-08-20T02:38:06;19.91;84.52
69546;SHT31;56766;52.260;20.746;2023-08-20T02:40:41;19.91;84.57
69546;SHT31;56766;52.260;20.746;2023-08-20T02:43:08;19.87;84.73
69546;SHT31;56766;52.260;20.746;2023-08-20T02:45:42;19.85;84.85
69546;SHT31;56766;52.260;20.746;2023-08-20T02:48:09;19.85;84.90
69546;SHT31;56766;52.260;20.746;2023-08-20T02:50:36;19.85;84.90
69546;SHT31;56766;52.260;20.746;2023-08-20T02:53:03;19.85;84.83
69546;SHT31;56766;52.260;20.746;2023-08-20T02:55:31;19.85;84.69
69546;SHT31;56766;52.260;20.746;2023-08-20T02:57:59;19.87;84.64
69546;SHT31;56766;52.260;20.746;2023-08-20T03:00:25;19.88;84.55
69546;SHT31;56766;52.260;20.746;2023-08-20T03:02:52;19.90;84.31
69546;SHT31;56766;52.260;20.746;2023-08-20T03:05:19;19.89;84.02
69546;SHT31;56766;52.260;20.746;2023-08-20T03:07:45;19.84;83.97
69546;SHT31;56766;52.260;20.746;2023-08-20T03:10:12;19.80;84.01
69546;SHT31;56766;52.260;20.746;2023-08-20T03:12:38;19.77;84.05
69546;SHT31;56766;52.260;20.746;2023-08-20T03:15:06;19.80;84.15
69546;SHT31;56766;52.260;20.746;2023-08-20T03:17:33;19.84;83.79
69546;SHT31;56766;52.260;20.746;2023-08-20T03:20:00;19.81;83.74
69546;SHT31;56766;52.260;20.746;2023-08-20T03:22:27;19.79;83.88
69546;SHT31;56766;52.260;20.746;2023-08-20T03:24:54;19.75;83.75
69546;SHT31;56766;52.260;20.746;2023-08-20T03:27:20;19.75;83.93
69546;SHT31;56766;52.260;20.746;2023-08-20T03:29:47;19.76;83.72
69546;SHT31;56766;52.260;20.746;2023-08-20T03:32:14;19.74;83.65
69546;SHT31;56766;52.260;20.746;2023-08-20T03:34:40;19.72;83.70
69546;SHT31;56766;52.260;20.746;2023-08-20T03:37:07;19.71;83.79
69546;SHT31;56766;52.260;20.746;2023-08-20T03:39:33;19.71;83.94
69546;SHT31;56766;52.260;20.746;2023-08-20T03:42:00;19.73;83.88
69546;SHT31;56766;52.260;20.746;2023-08-20T03:44:27;19.81;83.91
69546;SHT31;56766;52.260;20.746;2023-08-20T03:46:55;19.91;83.74
69546;SHT31;56766;52.260;20.746;2023-08-20T03:49:22;19.98;83.75
69546;SHT31;56766;52.260;20.746;2023-08-20T03:51:49;20.09;83.64
69546;SHT31;56766;52.260;20.746;2023-08-20T03:54:15;20.14;83.54
69546;SHT31;56766;52.260;20.746;2023-08-20T03:56:42;20.17;83.49
69546;SHT31;56766;52.260;20.746;2023-08-20T03:59:09;20.22;83.60
69546;SHT31;56766;52.260;20.746;2023-08-20T04:01:35;20.34;83.79
69546;SHT31;56766;52.260;20.746;2023-08-20T04:04:06;20.45;83.71
69546;SHT31;56766;52.260;20.746;2023-08-20T04:06:33;20.52;83.52
69546;SHT31;56766;52.260;20.746;2023-08-20T04:08:59;20.56;83.20
69546;SHT31;56766;52.260;20.746;2023-08-20T04:11:26;20.65;83.44
69546;SHT31;56766;52.260;20.746;2023-08-20T04:13:52;20.72;83.29
69546;SHT31;56766;52.260;20.746;2023-08-20T04:16:19;20.75;83.22
69546;SHT31;56766;52.260;20.746;2023-08-20T04:18:46;20.77;83.24
69546;SHT31;56766;52.260;20.746;2023-08-20T04:21:12;20.77;83.16
69546;SHT31;56766;52.260;20.746;2023-08-20T04:23:40;20.80;83.33
69546;SHT31;56766;52.260;20.746;2023-08-20T04:26:08;20.90;83.43
69546;SHT31;56766;52.260;20.746;2023-08-20T04:28:34;21.09;83.04
69546;SHT31;56766;52.260;20.746;2023-08-20T04:31:01;21.23;82.82
69546;SHT31;56766;52.260;20.746;2023-08-20T04:33:28;21.28;82.80
69546;SHT31;56766;52.260;20.746;2023-08-20T04:35:55;21.29;82.77
69546;SHT31;56766;52.260;20.746;2023-08-20T04:38:22;21.28;82.93
69546;SHT31;56766;52.260;20.746;2023-08-20T04:40:48;21.35;83.04
69546;SHT31;56766;52.260;20.746;2023-08-20T04:43:15;21.42;82.89
69546;SHT31;56766;52.260;20.746;2023-08-20T04:45:42;21.52;82.89
69546;SHT31;56766;52.260;20.746;2023-08-20T04:48:09;21.67;82.91
69546;SHT31;56766;52.260;20.746;2023-08-20T04:50:36;21.79;82.79
69546;SHT31;56766;52.260;20.746;2023-08-20T04:53:02;21.94;82.62
69546;SHT31;56766;52.260;20.746;2023-08-20T04:55:30;22.16;82.39
69546;SHT31;56766;52.260;20.746;2023-08-20T04:57:57;22.32;82.35
69546;SHT31;56766;52.260;20.746;2023-08-20T05:00:24;22.46;82.37
69546;SHT31;56766;52.260;20.746;2023-08-20T05:02:51;22.62;82.46
69546;SHT31;56766;52.260;20.746;2023-08-20T05:05:17;22.85;82.20
69546;SHT31;56766;52.260;20.746;2023-08-20T05:07:44;23.02;82.14
69546;SHT31;56766;52.260;20.746;2023-08-20T05:10:11;23.18;81.94
69546;SHT31;56766;52.260;20.746;2023-08-20T05:12:37;23.36;81.90
69546;SHT31;56766;52.260;20.746;2023-08-20T05:15:04;23.55;81.78
69546;SHT31;56766;52.260;20.746;2023-08-20T05:17:31;23.74;81.56
69546;SHT31;56766;52.260;20.746;2023-08-20T05:19:58;23.94;81.20
69546;SHT31;56766;52.260;20.746;2023-08-20T05:22:24;24.14;80.86
69546;SHT31;56766;52.260;20.746;2023-08-20T05:24:51;24.33;80.49
69546;SHT31;56766;52.260;20.746;2023-08-20T05:27:17;24.51;80.29
69546;SHT31;56766;52.260;20.746;2023-08-20T05:29:44;24.68;80.22
69546;SHT31;56766;52.260;20.746;2023-08-20T05:32:11;24.84;80.08
69546;SHT31;56766;52.260;20.746;2023-08-20T05:34:38;25.00;79.71
69546;SHT31;56766;52.260;20.746;2023-08-20T05:37:04;25.17;79.46
69546;SHT31;56766;52.260;20.746;2023-08-20T05:39:37;25.31;79.09
69546;SHT31;56766;52.260;20.746;2023-08-20T05:42:07;25.43;79.03
69546;SHT31;56766;52.260;20.746;2023-08-20T05:44:33;25.54;78.88
69546;SHT31;56766;52.260;20.746;2023-08-20T05:47:00;25.65;78.73
69546;SHT31;56766;52.260;20.746;2023-08-20T05:49:27;25.75;78.46
69546;SHT31;56766;52.260;20.746;2023-08-20T05:51:54;25.83;78.46
69546;SHT31;56766;52.260;20.746;2023-08-20T05:54:20;25.90;78.36
69546;SHT31;56766;52.260;20.746;2023-08-20T05:56:47;25.99;78.28
69546;SHT31;56766;52.260;20.746;2023-08-20T05:59:14;26.10;78.01
69546;SHT31;56766;52.260;20.746;2023-08-20T06:01:40;26.21;77.81
69546;SHT31;56766;52.260;20.746;2023-08-20T06:04:07;26.27;77.42
69546;SHT31;56766;52.260;20.746;2023-08-20T06:06:33;26.30;77.38
69546;SHT31;56766;52.260;20.746;2023-08-20T06:09:00;26.34;77.48
69546;SHT31;56766;52.260;20.746;2023-08-20T06:11:27;26.41;77.30
69546;SHT31;56766;52.260;20.746;2023-08-20T06:13:53;26.46;77.18
69546;SHT31;56766;52.260;20.746;2023-08-20T06:16:20;26.51;77.10
69546;SHT31;56766;52.260;20.746;2023-08-20T06:18:46;26.55;77.08
69546;SHT31;56766;52.260;20.746;2023-08-20T06:21:13;26.63;76.90
69546;SHT31;56766;52.260;20.746;2023-08-20T06:23:40;26.72;76.66
69546;SHT31;56766;52.260;20.746;2023-08-20T06:26:06;26.81;76.47
69546;SHT31;56766;52.260;20.746;2023-08-20T06:28:33;26.87;76.23
69546;SHT31;56766;52.260;20.746;2023-08-20T06:30:59;26.93;75.84
69546;SHT31;56766;52.260;20.746;2023-08-20T06:33:26;26.96;75.42
69546;SHT31;56766;52.260;20.746;2023-08-20T06:35:53;27.00;75.43
69546;SHT31;56766;52.260;20.746;2023-08-20T06:38:19;27.06;75.46
69546;SHT31;56766;52.260;20.746;2023-08-20T06:40:46;27.10;75.30
69546;SHT31;56766;52.260;20.746;2023-08-20T06:43:12;27.17;75.33
69546;SHT31;56766;52.260;20.746;2023-08-20T06:45:39;27.26;74.88
69546;SHT31;56766;52.260;20.746;2023-08-20T06:48:06;27.32;74.71
69546;SHT31;56766;52.260;20.746;2023-08-20T06:50:32;27.36;74.89
69546;SHT31;56766;52.260;20.746;2023-08-20T06:52:59;27.43;74.49
69546;SHT31;56766;52.260;20.746;2023-08-20T06:55:26;27.52;73.85
69546;SHT31;56766;52.260;20.746;2023-08-20T06:57:52;27.57;73.39
69546;SHT31;56766;52.260;20.746;2023-08-20T07:00:19;27.65;73.00
69546;SHT31;56766;52.260;20.746;2023-08-20T07:02:45;27.70;73.06
69546;SHT31;56766;52.260;20.746;2023-08-20T07:05:12;27.76;73.06
69546;SHT31;56766;52.260;20.746;2023-08-20T07:07:41;27.82;72.57
69546;SHT31;56766;52.260;20.746;2023-08-20T07:10:07;27.87;72.48
69546;SHT31;56766;52.260;20.746;2023-08-20T07:12:34;27.97;72.12
69546;SHT31;56766;52.260;20.746;2023-08-20T07:15:01;28.06;71.98
69546;SHT31;56766;52.260;20.746;2023-08-20T07:17:28;28.08;72.03
69546;SHT31;56766;52.260;20.746;2023-08-20T07:19:54;28.18;72.32
69546;SHT31;56766;52.260;20.746;2023-08-20T07:22:21;28.34;72.04
69546;SHT31;56766;52.260;20.746;2023-08-20T07:24:47;28.48;71.87
69546;SHT31;56766;52.260;20.746;2023-08-20T07:27:14;28.61;71.23
69546;SHT31;56766;52.260;20.746;2023-08-20T07:29:41;28.77;70.34
69546;SHT31;56766;52.260;20.746;2023-08-20T07:32:07;28.87;69.47
69546;SHT31;56766;52.260;20.746;2023-08-20T07:34:34;28.94;69.43
69546;SHT31;56766;52.260;20.746;2023-08-20T07:37:01;29.03;69.28
69546;SHT31;56766;52.260;20.746;2023-08-20T07:39:29;29.09;67.93
69546;SHT31;56766;52.260;20.746;2023-08-20T07:41:55;29.15;67.93
69546;SHT31;56766;52.260;20.746;2023-08-20T07:44:22;29.20;67.23
69546;SHT31;56766;52.260;20.746;2023-08-20T07:46:49;29.29;67.58
69546;SHT31;56766;52.260;20.746;2023-08-20T07:49:15;29.35;68.13
69546;SHT31;56766;52.260;20.746;2023-08-20T07:51:42;29.45;67.87
69546;SHT31;56766;52.260;20.746;2023-08-20T07:54:08;29.54;68.06
69546;SHT31;56766;52.260;20.746;2023-08-20T07:56:35;29.69;68.30
69546;SHT31;56766;52.260;20.746;2023-08-20T07:59:02;29.84;67.62
69546;SHT31;56766;52.260;20.746;2023-08-20T08:01:29;29.92;66.17
69546;SHT31;56766;52.260;20.746;2023-08-20T08:03:56;29.98;65.70
69546;SHT31;56766;52.260;20.746;2023-08-20T08:06:22;30.11;65.53
69546;SHT31;56766;52.260;20.746;2023-08-20T08:08:50;30.28;65.57
69546;SHT31;56766;52.260;20.746;2023-08-20T08:11:17;30.44;65.01
69546;SHT31;56766;52.260;20.746;2023-08-20T08:13:43;30.52;64.14
69546;SHT31;56766;52.260;20.746;2023-08-20T08:16:10;30.59;63.11
69546;SHT31;56766;52.260;20.746;2023-08-20T08:18:36;30.64;62.62
69546;SHT31;56766;52.260;20.746;2023-08-20T08:21:03;30.71;62.40
69546;SHT31;56766;52.260;20.746;2023-08-20T08:23:30;30.72;63.20
69546;SHT31;56766;52.260;20.746;2023-08-20T08:25:56;30.77;62.87
69546;SHT31;56766;52.260;20.746;2023-08-20T08:28:23;30.84;62.71
69546;SHT31;56766;52.260;20.746;2023-08-20T08:30:50;30.95;62.19
69546;SHT31;56766;52.260;20.746;2023-08-20T08:33:16;31.03;60.96
69546;SHT31;56766;52.260;20.746;2023-08-20T08:35:43;31.06;61.05
69546;SHT31;56766;52.260;20.746;2023-08-20T08:38:09;31.08;60.91
69546;SHT31;56766;52.260;20.746;2023-08-20T08:40:37;31.13;60.78
69546;SHT31;56766;52.260;20.746;2023-08-20T08:43:07;31.22;60.94
69546;SHT31;56766;52.260;20.746;2023-08-20T08:45:34;31.26;59.79
69546;SHT31;56766;52.260;20.746;2023-08-20T08:48:02;31.25;59.09
69546;SHT31;56766;52.260;20.746;2023-08-20T08:50:31;31.26;58.59
69546;SHT31;56766;52.260;20.746;2023-08-20T08:52:59;31.32;58.74
69546;SHT31;56766;52.260;20.746;2023-08-20T08:55:25;31.34;58.40
69546;SHT31;56766;52.260;20.746;2023-08-20T08:57:52;31.44;59.06
69546;SHT31;56766;52.260;20.746;2023-08-20T09:00:19;31.59;58.96
69546;SHT31;56766;52.260;20.746;2023-08-20T09:02:46;31.76;59.26
69546;SHT31;56766;52.260;20.746;2023-08-20T09:05:13;31.90;58.14
69546;SHT31;56766;52.260;20.746;2023-08-20T09:07:42;32.02;57.66
69546;SHT31;56766;52.260;20.746;2023-08-20T09:10:11;32.11;57.56
69546;SHT31;56766;52.260;20.746;2023-08-20T09:12:37;32.26;58.26
69546;SHT31;56766;52.260;20.746;2023-08-20T09:15:10;32.44;58.26
69546;SHT31;56766;52.260;20.746;2023-08-20T09:17:41;32.61;58.01
69546;SHT31;56766;52.260;20.746;2023-08-20T09:20:08;32.72;56.76
69546;SHT31;56766;52.260;20.746;2023-08-20T09:22:36;32.81;56.54
69546;SHT31;56766;52.260;20.746;2023-08-20T09:25:03;32.86;54.58
69546;SHT31;56766;52.260;20.746;2023-08-20T09:27:39;32.93;55.15
69546;SHT31;56766;52.260;20.746;2023-08-20T09:30:09;33.08;56.10
69546;SHT31;56766;52.260;20.746;2023-08-20T09:32:36;33.14;54.86
69546;SHT31;56766;52.260;20.746;2023-08-20T09:35:03;32.78;53.72
69546;SHT31;56766;52.260;20.746;2023-08-20T09:37:32;32.55;54.60
69546;SHT31;56766;52.260;20.746;2023-08-20T09:39:59;32.66;54.54
69546;SHT31;56766;52.260;20.746;2023-08-20T09:42:27;32.83;54.53
69546;SHT31;56766;52.260;20.746;2023-08-20T09:45:02;33.04;54.38
69546;SHT31;56766;52.260;20.746;2023-08-20T09:47:35;33.22;55.19
69546;SHT31;56766;52.260;20.746;2023-08-20T09:50:10;33.43;55.20
69546;SHT31;56766;52.260;20.746;2023-08-20T09:52:52;33.64;54.32
69546;SHT31;56766;52.260;20.746;2023-08-20T09:55:30;33.80;53.61
69546;SHT31;56766;52.260;20.746;2023-08-20T09:58:03;33.98;53.84
69546;SHT31;56766;52.260;20.746;2023-08-20T10:00:31;34.21;53.35
69546;SHT31;56766;52.260;20.746;2023-08-20T10:02:59;34.42;52.89
69546;SHT31;56766;52.260;20.746;2023-08-20T10:05:26;34.57;52.24
69546;SHT31;56766;52.260;20.746;2023-08-20T10:07:55;34.69;52.95
69546;SHT31;56766;52.260;20.746;2023-08-20T10:10:22;34.86;51.68
69546;SHT31;56766;52.260;20.746;2023-08-20T10:12:49;35.02;50.61
69546;SHT31;56766;52.260;20.746;2023-08-20T10:15:17;35.16;49.15
69546;SHT31;56766;52.260;20.746;2023-08-20T10:17:45;35.29;49.44
69546;SHT31;56766;52.260;20.746;2023-08-20T10:20:14;35.54;49.46
69546;SHT31;56766;52.260;20.746;2023-08-20T10:22:44;35.62;46.99
69546;SHT31;56766;52.260;20.746;2023-08-20T10:25:23;35.61;46.29
69546;SHT31;56766;52.260;20.746;2023-08-20T10:27:52;35.60;46.67
69546;SHT31;56766;52.260;20.746;2023-08-20T10:30:25;35.52;46.99
69546;SHT31;56766;52.260;20.746;2023-08-20T10:32:55;35.53;47.26
69546;SHT31;56766;52.260;20.746;2023-08-20T10:35:29;35.50;45.83
69546;SHT31;56766;52.260;20.746;2023-08-20T10:38:15;35.16;45.05
69546;SHT31;56766;52.260;20.746;2023-08-20T10:40:57;34.89;45.75
69546;SHT31;56766;52.260;20.746;2023-08-20T10:43:32;34.95;45.13
69546;SHT31;56766;52.260;20.746;2023-08-20T10:48:32;35.17;46.90
69546;SHT31;56766;52.260;20.746;2023-08-20T10:51:17;35.22;47.04
69546;SHT31;56766;52.260;20.746;2023-08-20T10:56:58;35.23;46.47
69546;SHT31;56766;52.260;20.746;2023-08-20T10:59:29;35.25;44.97
69546;SHT31;56766;52.260;20.746;2023-08-20T11:01:58;35.28;44.81
69546;SHT31;56766;52.260;20.746;2023-08-20T11:04:29;35.14;44.90
69546;SHT31;56766;52.260;20.746;2023-08-20T11:07:00;34.82;46.16
69546;SHT31;56766;52.260;20.746;2023-08-20T11:09:29;34.64;46.20
69546;SHT31;56766;52.260;20.746;2023-08-20T11:11:58;34.78;47.17
69546;SHT31;56766;52.260;20.746;2023-08-20T11:14:25;35.00;47.19
69546;SHT31;56766;52.260;20.746;2023-08-20T11:16:52;35.13;45.73
69546;SHT31;56766;52.260;20.746;2023-08-20T11:19:22;35.21;45.80
69546;SHT31;56766;52.260;20.746;2023-08-20T11:21:51;35.25;45.46
69546;SHT31;56766;52.260;20.746;2023-08-20T11:24:18;35.36;46.02
69546;SHT31;56766;52.260;20.746;2023-08-20T11:26:47;35.52;46.59
69546;SHT31;56766;52.260;20.746;2023-08-20T11:29:16;35.61;44.53
69546;SHT31;56766;52.260;20.746;2023-08-20T11:31:50;35.49;43.85
69546;SHT31;56766;52.260;20.746;2023-08-20T11:34:20;35.45;43.88
69546;SHT31;56766;52.260;20.746;2023-08-20T11:36:47;35.52;45.37
69546;SHT31;56766;52.260;20.746;2023-08-20T11:39:14;35.66;46.03
69546;SHT31;56766;52.260;20.746;2023-08-20T11:41:41;35.74;45.57
69546;SHT31;56766;52.260;20.746;2023-08-20T11:44:10;35.84;46.19
69546;SHT31;56766;52.260;20.746;2023-08-20T11:46:45;35.95;44.42
69546;SHT31;56766;52.260;20.746;2023-08-20T11:49:13;35.96;44.07
69546;SHT31;56766;52.260;20.746;2023-08-20T11:51:42;35.98;44.59
69546;SHT31;56766;52.260;20.746;2023-08-20T11:54:14;36.01;44.06
69546;SHT31;56766;52.260;20.746;2023-08-20T11:56:47;35.94;43.80
69546;SHT31;56766;52.260;20.746;2023-08-20T11:59:16;36.02;45.64
69546;SHT31;56766;52.260;20.746;2023-08-20T12:01:54;36.17;45.90
69546;SHT31;56766;52.260;20.746;2023-08-20T12:04:27;36.23;45.85
69546;SHT31;56766;52.260;20.746;2023-08-20T12:07:08;36.08;46.49
69546;SHT31;56766;52.260;20.746;2023-08-20T12:09:36;35.96;46.85
69546;SHT31;56766;52.260;20.746;2023-08-20T12:12:05;36.03;46.97
69546;SHT31;56766;52.260;20.746;2023-08-20T12:14:34;36.11;46.64
69546;SHT31;56766;52.260;20.746;2023-08-20T12:17:02;35.96;45.25
69546;SHT31;56766;52.260;20.746;2023-08-20T12:19:31;35.90;45.54
69546;SHT31;56766;52.260;20.746;2023-08-20T12:21:58;36.02;46.02
69546;SHT31;56766;52.260;20.746;2023-08-20T12:24:25;35.99;43.71
69546;SHT31;56766;52.260;20.746;2023-08-20T12:26:52;35.96;45.32
69546;SHT31;56766;52.260;20.746;2023-08-20T12:29:19;36.06;45.67
69546;SHT31;56766;52.260;20.746;2023-08-20T12:31:46;36.07;45.16
69546;SHT31;56766;52.260;20.746;2023-08-20T12:34:13;36.03;44.81
69546;SHT31;56766;52.260;20.746;2023-08-20T12:36:40;35.99;45.11
69546;SHT31;56766;52.260;20.746;2023-08-20T12:39:07;35.99;44.66
69546;SHT31;56766;52.260;20.746;2023-08-20T12:41:34;35.93;43.78
69546;SHT31;56766;52.260;20.746;2023-08-20T12:44:05;35.81;43.79
69546;SHT31;56766;52.260;20.746;2023-08-20T12:46:32;35.76;43.90
69546;SHT31;56766;52.260;20.746;2023-08-20T12:48:59;35.70;44.14
69546;SHT31;56766;52.260;20.746;2023-08-20T12:51:26;35.63;43.70
69546;SHT31;56766;52.260;20.746;2023-08-20T12:53:53;35.55;43.76
69546;SHT31;56766;52.260;20.746;2023-08-20T12:56:20;35.46;44.28
69546;SHT31;56766;52.260;20.746;2023-08-20T12:58:46;35.39;43.95
69546;SHT31;56766;52.260;20.746;2023-08-20T13:01:13;35.30;43.62
69546;SHT31;56766;52.260;20.746;2023-08-20T13:03:40;35.22;43.80
69546;SHT31;56766;52.260;20.746;2023-08-20T13:06:07;35.14;44.37
69546;SHT31;56766;52.260;20.746;2023-08-20T13:08:34;35.09;44.12
69546;SHT31;56766;52.260;20.746;2023-08-20T13:11:03;35.01;44.10
69546;SHT31;56766;52.260;20.746;2023-08-20T13:13:33;34.99;44.19
69546;SHT31;56766;52.260;20.746;2023-08-20T13:16:01;34.92;45.04
69546;SHT31;56766;52.260;20.746;2023-08-20T13:18:28;34.93;45.78
69546;SHT31;56766;52.260;20.746;2023-08-20T13:20:55;34.93;45.65
69546;SHT31;56766;52.260;20.746;2023-08-20T13:23:22;34.86;45.83
69546;SHT31;56766;52.260;20.746;2023-08-20T13:25:50;34.77;45.72
69546;SHT31;56766;52.260;20.746;2023-08-20T13:28:16;34.74;45.75
69546;SHT31;56766;52.260;20.746;2023-08-20T13:30:44;34.73;45.56
69546;SHT31;56766;52.260;20.746;2023-08-20T13:33:12;34.68;44.94
69546;SHT31;56766;52.260;20.746;2023-08-20T13:35:41;34.50;44.83
69546;SHT31;56766;52.260;20.746;2023-08-20T13:38:08;34.31;44.92
69546;SHT31;56766;52.260;20.746;2023-08-20T13:40:34;34.17;45.16
69546;SHT31;56766;52.260;20.746;2023-08-20T13:43:01;34.03;45.60
69546;SHT31;56766;52.260;20.746;2023-08-20T13:45:29;33.82;46.14
69546;SHT31;56766;52.260;20.746;2023-08-20T13:47:55;33.74;46.83
69546;SHT31;56766;52.260;20.746;2023-08-20T13:50:22;33.61;46.20
69546;SHT31;56766;52.260;20.746;2023-08-20T13:52:49;33.41;46.76
69546;SHT31;56766;52.260;20.746;2023-08-20T13:55:15;33.17;46.49
69546;SHT31;56766;52.260;20.746;2023-08-20T13:57:42;32.98;47.17
69546;SHT31;56766;52.260;20.746;2023-08-20T14:00:12;32.90;46.98
69546;SHT31;56766;52.260;20.746;2023-08-20T14:02:41;32.97;47.30
69546;SHT31;56766;52.260;20.746;2023-08-20T14:05:08;32.96;47.01
69546;SHT31;56766;52.260;20.746;2023-08-20T14:07:35;32.95;47.38
69546;SHT31;56766;52.260;20.746;2023-08-20T14:10:02;33.03;47.38
69546;SHT31;56766;52.260;20.746;2023-08-20T14:12:30;33.11;45.69
69546;SHT31;56766;52.260;20.746;2023-08-20T14:14:57;33.18;45.27
69546;SHT31;56766;52.260;20.746;2023-08-20T14:17:24;33.23;45.01
69546;SHT31;56766;52.260;20.746;2023-08-20T14:19:51;33.31;45.08
69546;SHT31;56766;52.260;20.746;2023-08-20T14:22:18;33.39;44.76
69546;SHT31;56766;52.260;20.746;2023-08-20T14:24:45;33.54;45.45
69546;SHT31;56766;52.260;20.746;2023-08-20T14:27:11;33.70;45.99
69546;SHT31;56766;52.260;20.746;2023-08-20T14:29:38;33.73;45.76
69546;SHT31;56766;52.260;20.746;2023-08-20T14:32:05;33.73;45.41
69546;SHT31;56766;52.260;20.746;2023-08-20T14:34:34;33.73;44.93
69546;SHT31;56766;52.260;20.746;2023-08-20T14:37:00;33.75;44.78
69546;SHT31;56766;52.260;20.746;2023-08-20T14:39:27;33.70;44.01
69546;SHT31;56766;52.260;20.746;2023-08-20T14:41:53;33.58;43.79
69546;SHT31;56766;52.260;20.746;2023-08-20T14:44:20;33.52;44.47
69546;SHT31;56766;52.260;20.746;2023-08-20T14:46:47;33.59;44.11
69546;SHT31;56766;52.260;20.746;2023-08-20T14:49:13;33.64;43.66
69546;SHT31;56766;52.260;20.746;2023-08-20T14:51:40;33.68;43.28
69546;SHT31;56766;52.260;20.746;2023-08-20T14:54:07;33.67;43.55
69546;SHT31;56766;52.260;20.746;2023-08-20T14:56:34;33.60;43.24
69546;SHT31;56766;52.260;20.746;2023-08-20T14:59:00;33.44;44.03
69546;SHT31;56766;52.260;20.746;2023-08-20T15:01:27;33.37;45.06
69546;SHT31;56766;52.260;20.746;2023-08-20T15:03:54;33.27;44.60
69546;SHT31;56766;52.260;20.746;2023-08-20T15:06:20;33.18;44.72
69546;SHT31;56766;52.260;20.746;2023-08-20T15:08:48;33.11;44.92
69546;SHT31;56766;52.260;20.746;2023-08-20T15:11:15;33.08;45.84
69546;SHT31;56766;52.260;20.746;2023-08-20T15:13:42;33.03;45.82
69546;SHT31;56766;52.260;20.746;2023-08-20T15:16:09;32.95;45.59
69546;SHT31;56766;52.260;20.746;2023-08-20T15:18:35;32.90;45.45
69546;SHT31;56766;52.260;20.746;2023-08-20T15:21:02;32.78;44.27
69546;SHT31;56766;52.260;20.746;2023-08-20T15:23:29;32.71;44.80
69546;SHT31;56766;52.260;20.746;2023-08-20T15:25:56;32.63;44.41
69546;SHT31;56766;52.260;20.746;2023-08-20T15:28:24;32.54;43.99
69546;SHT31;56766;52.260;20.746;2023-08-20T15:30:52;32.43;44.50
69546;SHT31;56766;52.260;20.746;2023-08-20T15:33:20;32.33;44.50